createdAt,value
2022-08-27T00:02:11.289Z,0.30
2022-08-27T00:04:38.953Z,0.10
2022-08-27T00:07:09.206Z,0.10
2022-08-27T00:09:36.416Z,0.20
2022-08-27T00:12:03.744Z,0.20
2022-08-27T00:14:30.893Z,0.03
2022-08-27T00:16:57.925Z,0.25
2022-08-27T00:19:25.762Z,0.13
2022-08-27T00:21:52.524Z,0.10
2022-08-27T00:24:19.398Z,0.13
2022-08-27T00:26:46.202Z,0.10
2022-08-27T00:29:13.185Z,0.30
2022-08-27T00:31:39.966Z,0.13
2022-08-27T00:34:09.325Z,0.10
2022-08-27T00:36:42.940Z,0.10
2022-08-27T00:39:09.875Z,0.13
2022-08-27T00:41:39.242Z,0.00
2022-08-27T00:44:07.353Z,0.10
2022-08-27T00:46:41.932Z,0.10
2022-08-27T00:49:16.181Z,0.10
2022-08-27T00:51:44.345Z,0.22
2022-08-27T00:54:17.336Z,0.03
2022-08-27T00:56:51.455Z,0.10
2022-08-27T00:59:21.341Z,0.10
2022-08-27T01:02:11.195Z,0.30
2022-08-27T01:04:40.642Z,0.38
2022-08-27T01:07:09.907Z,0.22
2022-08-27T01:09:39.801Z,0.10
2022-08-27T01:12:06.694Z,0.10
2022-08-27T01:14:34.799Z,0.30
2022-08-27T01:17:03.521Z,0.25
2022-08-27T01:19:38.566Z,0.10
2022-08-27T01:22:23.366Z,0.25
2022-08-27T01:24:55.383Z,0.30
2022-08-27T01:27:26.396Z,1.17
2022-08-27T01:29:54.664Z,0.10
2022-08-27T01:32:26.192Z,0.17
2022-08-27T01:34:53.257Z,0.50
2022-08-27T01:37:23.640Z,0.30
2022-08-27T01:39:57.033Z,0.10
2022-08-27T01:42:33.716Z,0.10
2022-08-27T01:45:14.377Z,0.10
2022-08-27T01:47:41.325Z,0.20
2022-08-27T01:50:32.046Z,0.10
2022-08-27T01:53:06.958Z,0.45
2022-08-27T01:55:34.042Z,0.10
2022-08-27T01:58:02.665Z,0.10
2022-08-27T02:00:36.330Z,0.10
2022-08-27T02:03:04.919Z,0.13
2022-08-27T02:05:44.565Z,0.20
2022-08-27T02:08:13.147Z,0.20
2022-08-27T02:10:42.908Z,0.30
2022-08-27T02:13:09.994Z,0.10
2022-08-27T02:15:42.413Z,0.40
2022-08-27T02:18:11.365Z,0.00
2022-08-27T02:20:38.306Z,0.10
2022-08-27T02:23:05.976Z,0.10
2022-08-27T02:25:32.991Z,0.10
2022-08-27T02:28:00.416Z,0.40
2022-08-27T02:30:36.229Z,0.10
2022-08-27T02:33:05.303Z,0.35
2022-08-27T02:35:34.887Z,0.10
2022-08-27T02:38:04.872Z,0.10
2022-08-27T02:40:31.852Z,0.22
2022-08-27T02:43:01.799Z,0.20
2022-08-27T02:45:35.521Z,0.28
2022-08-27T02:48:02.647Z,0.32
2022-08-27T02:50:30.710Z,0.10
2022-08-27T02:52:57.955Z,0.20
2022-08-27T02:55:24.996Z,0.00
2022-08-27T02:57:51.746Z,0.65
2022-08-27T03:00:20.937Z,0.10
2022-08-27T03:02:48.427Z,0.40
2022-08-27T03:05:17.785Z,0.10
2022-08-27T03:07:45.438Z,0.10
2022-08-27T03:10:15.437Z,0.10
2022-08-27T03:12:42.374Z,0.10
2022-08-27T03:15:12.557Z,0.10
2022-08-27T03:18:03.307Z,0.10
2022-08-27T03:20:30.485Z,0.10
2022-08-27T03:22:57.300Z,0.10
2022-08-27T03:25:24.111Z,0.32
2022-08-27T03:27:51.063Z,0.40
2022-08-27T03:30:21.437Z,0.85
2022-08-27T03:32:48.930Z,0.10
2022-08-27T03:35:16.144Z,0.17
2022-08-27T03:37:44.102Z,0.20
2022-08-27T03:40:13.474Z,0.10
2022-08-27T03:42:42.334Z,0.10
2022-08-27T03:45:11.209Z,0.50
2022-08-27T03:47:38.130Z,0.20
2022-08-27T03:50:08.850Z,0.00
2022-08-27T03:52:36.339Z,0.90
2022-08-27T03:55:05.001Z,0.90
2022-08-27T03:57:34.868Z,0.10
2022-08-27T04:00:01.670Z,0.10
2022-08-27T04:02:28.569Z,0.10
2022-08-27T04:04:57.727Z,0.20
2022-08-27T04:07:24.507Z,0.10
2022-08-27T04:09:51.570Z,0.20
2022-08-27T04:12:18.300Z,0.30
2022-08-27T04:14:46.174Z,0.22
2022-08-27T04:17:13.395Z,0.00
2022-08-27T04:19:40.144Z,0.17
2022-08-27T04:22:09.905Z,0.93
2022-08-27T04:24:38.070Z,0.10
2022-08-27T04:27:06.702Z,0.10
2022-08-27T04:29:35.922Z,0.00
2022-08-27T04:32:02.982Z,0.10
2022-08-27T04:34:30.730Z,0.20
2022-08-27T04:36:57.881Z,0.30
2022-08-27T04:39:28.494Z,0.10
2022-08-27T04:41:59.506Z,0.10
2022-08-27T04:44:32.432Z,0.10
2022-08-27T04:47:06.407Z,0.10
2022-08-27T04:49:34.187Z,0.28
2022-08-27T04:52:00.988Z,0.13
2022-08-27T04:54:32.779Z,0.10
2022-08-27T04:57:05.212Z,0.10
2022-08-27T04:59:33.253Z,0.10
2022-08-27T05:02:04.598Z,0.40
2022-08-27T05:04:35.784Z,0.38
2022-08-27T05:07:04.980Z,0.10
2022-08-27T05:09:31.724Z,0.13
2022-08-27T05:11:58.696Z,0.10
2022-08-27T05:14:30.518Z,0.20
2022-08-27T05:16:58.410Z,0.10
2022-08-27T05:19:25.211Z,0.10
2022-08-27T05:21:58.787Z,0.22
2022-08-27T05:24:34.333Z,0.10
2022-08-27T05:27:00.938Z,0.20
2022-08-27T05:29:33.788Z,0.10
2022-08-27T05:32:00.469Z,0.10
2022-08-27T05:34:28.075Z,0.10
2022-08-27T05:36:56.245Z,0.20
2022-08-27T05:39:23.143Z,0.30
2022-08-27T05:41:49.776Z,0.10
2022-08-27T05:44:40.687Z,0.00
2022-08-27T05:47:04.680Z,0.10
2022-08-27T05:49:39.618Z,1.08
2022-08-27T05:52:09.586Z,0.20
2022-08-27T05:54:36.260Z,0.25
2022-08-27T05:57:03.223Z,0.82
2022-08-27T05:59:48.502Z,0.17
2022-08-27T06:02:15.273Z,0.25
2022-08-27T06:04:42.023Z,0.25
2022-08-27T06:07:11.381Z,0.10
2022-08-27T06:09:39.227Z,0.10
2022-08-27T06:12:08.089Z,0.43
2022-08-27T06:14:36.366Z,0.22
2022-08-27T06:17:03.896Z,0.28
2022-08-27T06:19:30.741Z,0.28
2022-08-27T06:22:00.719Z,0.15
2022-08-27T06:24:39.802Z,0.13
2022-08-27T06:27:06.593Z,0.28
2022-08-27T06:29:35.937Z,0.30
2022-08-27T06:32:05.271Z,0.10
2022-08-27T06:34:32.009Z,0.10
2022-08-27T06:36:58.759Z,0.13
2022-08-27T06:39:31.009Z,0.20
2022-08-27T06:41:59.013Z,0.30
2022-08-27T06:44:25.908Z,0.30
2022-08-27T06:46:52.790Z,0.28
2022-08-27T06:49:19.499Z,0.10
2022-08-27T06:51:48.599Z,0.38
2022-08-27T06:54:17.434Z,0.15
2022-08-27T06:56:45.732Z,0.10
2022-08-27T06:59:16.084Z,0.22
2022-08-27T07:01:49.493Z,0.63
2022-08-27T07:04:46.857Z,0.35
2022-08-27T07:07:14.901Z,0.35
2022-08-27T07:10:02.652Z,0.10
2022-08-27T07:12:32.371Z,0.20
2022-08-27T07:15:01.195Z,0.43
2022-08-27T07:17:28.214Z,0.30
2022-08-27T07:19:57.052Z,0.35
2022-08-27T07:22:23.738Z,0.60
2022-08-27T07:24:52.707Z,0.20
2022-08-27T07:27:21.683Z,0.20
2022-08-27T07:29:50.498Z,0.10
2022-08-27T07:32:18.503Z,0.38
2022-08-27T07:34:45.208Z,0.22
2022-08-27T07:37:11.850Z,0.40
2022-08-27T07:39:38.559Z,0.20
2022-08-27T07:42:28.633Z,0.73
2022-08-27T07:45:02.302Z,0.13
2022-08-27T07:47:29.052Z,0.13
2022-08-27T07:49:55.715Z,0.15
2022-08-27T07:52:26.312Z,0.22
2022-08-27T07:54:53.505Z,0.10
2022-08-27T07:57:20.192Z,0.20
2022-08-27T07:59:50.484Z,0.20
2022-08-27T08:02:17.248Z,0.47
2022-08-27T08:04:50.967Z,0.30
2022-08-27T08:07:17.881Z,0.40
2022-08-27T08:09:44.568Z,0.20
2022-08-27T08:12:11.174Z,0.50
2022-08-27T08:14:38.266Z,0.73
2022-08-27T08:17:08.640Z,0.10
2022-08-27T08:19:38.921Z,0.20
2022-08-27T08:22:06.144Z,0.10
2022-08-27T08:24:34.281Z,0.13
2022-08-27T08:27:07.182Z,0.40
2022-08-27T08:29:35.431Z,0.22
2022-08-27T08:32:02.142Z,0.40
2022-08-27T08:34:29.500Z,0.10
2022-08-27T08:36:56.142Z,0.10
2022-08-27T08:39:23.932Z,0.47
2022-08-27T08:42:00.071Z,0.22
2022-08-27T08:44:37.926Z,0.10
2022-08-27T08:47:12.099Z,0.22
2022-08-27T08:49:46.617Z,0.25
2022-08-27T08:52:30.859Z,0.15
2022-08-27T08:55:05.524Z,0.10
2022-08-27T08:57:39.374Z,1.02
2022-08-27T09:00:14.286Z,0.22
2022-08-27T09:02:54.604Z,0.10
2022-08-27T09:05:27.223Z,0.47
2022-08-27T09:11:30.819Z,0.40
2022-08-27T09:14:29.590Z,0.45
2022-08-27T09:17:01.301Z,0.20
2022-08-27T09:19:31.113Z,0.30
2022-08-27T09:22:28.539Z,0.63
2022-08-27T09:25:23.227Z,0.20
2022-08-27T09:27:55.749Z,0.30
2022-08-27T09:30:30.299Z,0.50
2022-08-27T09:33:00.731Z,0.43
2022-08-27T09:35:36.368Z,0.38
2022-08-27T09:38:05.594Z,0.20
2022-08-27T09:40:42.018Z,0.10
2022-08-27T09:43:24.483Z,0.30
2022-08-27T09:46:18.867Z,0.50
2022-08-27T09:48:45.613Z,0.10
2022-08-27T09:51:31.960Z,0.30
2022-08-27T09:54:00.637Z,0.38
2022-08-27T09:56:33.200Z,0.45
2022-08-27T09:59:13.657Z,0.30
2022-08-27T10:02:04.271Z,0.20
2022-08-27T10:04:51.492Z,0.57
2022-08-27T10:07:53.069Z,0.45
2022-08-27T10:10:46.072Z,0.43
2022-08-27T10:13:21.914Z,0.30
2022-08-27T10:15:58.154Z,0.60
2022-08-27T10:18:39.237Z,0.40
2022-08-27T10:21:25.566Z,0.20
2022-08-27T10:24:12.534Z,0.50
2022-08-27T10:27:10.050Z,0.57
2022-08-27T10:29:50.701Z,0.32
2022-08-27T10:32:34.394Z,0.43
2022-08-27T10:35:23.485Z,0.40
2022-08-27T10:38:11.743Z,0.20
2022-08-27T10:41:23.707Z,0.30
2022-08-27T10:44:09.997Z,0.47
2022-08-27T10:47:04.994Z,0.30
2022-08-27T10:49:58.394Z,0.30
2022-08-27T10:52:55.729Z,0.35
2022-08-27T10:55:33.507Z,0.40
2022-08-27T10:58:15.798Z,0.20
2022-08-27T11:01:07.291Z,0.60
2022-08-27T11:03:49.881Z,0.30
2022-08-27T11:06:25.498Z,0.30
2022-08-27T11:09:03.996Z,0.43
2022-08-27T11:12:12.870Z,0.60
2022-08-27T11:15:18.112Z,0.25
2022-08-27T11:18:05.010Z,0.30
2022-08-27T11:20:48.560Z,0.55
2022-08-27T11:23:25.187Z,0.40
2022-08-27T11:25:58.368Z,0.50
2022-08-27T11:28:46.493Z,0.50
2022-08-27T11:31:33.360Z,0.28
2022-08-27T11:34:18.258Z,0.38
2022-08-27T11:36:54.159Z,1.10
2022-08-27T11:39:36.612Z,0.50
2022-08-27T11:42:35.012Z,0.30
2022-08-27T11:45:16.634Z,0.38
2022-08-27T11:48:29.129Z,0.73
2022-08-27T11:51:15.855Z,0.65
2022-08-27T11:53:59.858Z,0.40
2022-08-27T11:56:36.934Z,0.40
2022-08-27T11:59:22.433Z,0.43
2022-08-27T12:01:52.768Z,0.68
2022-08-27T12:04:31.633Z,0.35
2022-08-27T12:07:04.006Z,0.40
2022-08-27T12:09:56.416Z,0.60
2022-08-27T12:12:39.620Z,0.20
2022-08-27T12:15:33.130Z,0.40
2022-08-27T12:18:21.775Z,0.30
2022-08-27T12:21:26.089Z,1.25
2022-08-27T12:24:31.487Z,0.50
2022-08-27T12:27:01.835Z,0.45
2022-08-27T12:29:50.424Z,0.40
2022-08-27T12:32:37.212Z,0.50
2022-08-27T12:35:10.952Z,0.70
2022-08-27T12:37:49.728Z,0.50
2022-08-27T12:40:25.475Z,1.27
2022-08-27T12:43:07.471Z,0.38
2022-08-27T12:45:45.100Z,0.93
2022-08-27T12:48:12.364Z,0.30
2022-08-27T12:50:42.242Z,0.55
2022-08-27T12:54:09.827Z,0.30
2022-08-27T12:56:53.181Z,0.43
2022-08-27T12:59:28.958Z,0.40
2022-08-27T13:01:58.607Z,0.63
2022-08-27T13:04:31.012Z,0.43
2022-08-27T13:06:58.307Z,0.40
2022-08-27T13:09:31.985Z,0.63
2022-08-27T13:12:00.588Z,0.30
2022-08-27T13:14:36.124Z,0.28
2022-08-27T13:17:09.068Z,0.20
2022-08-27T13:19:44.532Z,0.60
2022-08-27T13:22:11.293Z,0.28
2022-08-27T13:24:50.450Z,0.40
2022-08-27T13:27:30.469Z,0.30
2022-08-27T13:30:03.062Z,0.50
2022-08-27T13:32:31.091Z,0.60
2022-08-27T13:35:00.105Z,0.50
2022-08-27T13:37:46.726Z,0.30
2022-08-27T13:40:34.867Z,0.35
2022-08-27T13:43:13.825Z,0.20
2022-08-27T13:45:42.406Z,0.30
2022-08-27T13:48:12.640Z,0.30
2022-08-27T13:50:49.976Z,0.17
2022-08-27T13:53:42.743Z,0.25
2022-08-27T13:56:10.996Z,0.25
2022-08-27T13:58:37.668Z,0.65
2022-08-27T14:01:14.045Z,0.38
2022-08-27T14:04:08.678Z,0.30
2022-08-27T14:06:43.365Z,0.65
2022-08-27T14:09:28.715Z,0.30
2022-08-27T14:12:04.487Z,0.20
2022-08-27T14:14:38.232Z,0.28
2022-08-27T14:17:09.070Z,0.50
2022-08-27T14:19:37.124Z,0.20
2022-08-27T14:22:04.742Z,0.77
2022-08-27T14:24:31.403Z,0.40
2022-08-27T14:27:08.458Z,0.88
2022-08-27T14:29:36.110Z,0.63
2022-08-27T14:32:07.691Z,0.30
2022-08-27T14:34:35.344Z,0.30
2022-08-27T14:37:02.285Z,0.38
2022-08-27T14:39:29.137Z,0.50
2022-08-27T14:41:58.109Z,0.50
2022-08-27T14:44:27.304Z,0.70
2022-08-27T14:47:00.279Z,0.35
2022-08-27T14:49:35.133Z,0.52
2022-08-27T14:52:03.550Z,0.68
2022-08-27T14:54:33.352Z,0.10
2022-08-27T14:57:03.035Z,0.30
2022-08-27T14:59:30.192Z,0.63
2022-08-27T15:02:01.878Z,0.22
2022-08-27T15:04:29.635Z,0.40
2022-08-27T15:06:56.654Z,0.32
2022-08-27T15:09:23.401Z,0.43
2022-08-27T15:11:53.077Z,0.30
2022-08-27T15:14:32.225Z,0.30
2022-08-27T15:17:00.744Z,0.80
2022-08-27T15:19:29.625Z,0.77
2022-08-27T15:22:22.243Z,0.20
2022-08-27T15:25:03.170Z,0.60
2022-08-27T15:27:38.810Z,0.28
2022-08-27T15:30:27.366Z,0.20
2022-08-27T15:32:54.769Z,0.20
2022-08-27T15:35:26.630Z,0.10
2022-08-27T15:37:55.704Z,0.35
2022-08-27T15:40:24.219Z,0.10
2022-08-27T15:43:00.050Z,0.20
2022-08-27T15:45:28.720Z,0.40
2022-08-27T15:47:56.467Z,0.32
2022-08-27T15:50:23.467Z,0.40
2022-08-27T15:52:56.287Z,0.20
2022-08-27T15:55:29.317Z,0.22
2022-08-27T15:57:56.248Z,0.80
2022-08-27T16:00:26.713Z,0.20
2022-08-27T16:02:54.693Z,0.30
2022-08-27T16:05:22.488Z,0.10
2022-08-27T16:07:49.700Z,1.00
2022-08-27T16:10:20.311Z,0.38
2022-08-27T16:12:46.969Z,0.57
2022-08-27T16:15:17.233Z,0.47
2022-08-27T16:17:45.223Z,0.10
2022-08-27T16:20:15.305Z,0.65
2022-08-27T16:22:43.950Z,0.52
2022-08-27T16:25:15.331Z,0.47
2022-08-27T16:27:45.119Z,0.35
2022-08-27T16:30:12.874Z,0.60
2022-08-27T16:32:40.753Z,0.20
2022-08-27T16:35:08.925Z,0.10
2022-08-27T16:37:35.643Z,0.38
2022-08-27T16:40:02.554Z,0.52
2022-08-27T16:42:29.362Z,0.30
2022-08-27T16:44:57.191Z,0.10
2022-08-27T16:47:23.821Z,0.30
2022-08-27T16:50:09.192Z,0.10
2022-08-27T16:52:37.514Z,0.20
2022-08-27T16:55:04.462Z,0.35
2022-08-27T16:57:31.215Z,0.20
2022-08-27T16:59:58.177Z,0.13
2022-08-27T17:02:30.665Z,0.10
2022-08-27T17:05:17.879Z,0.15
2022-08-27T17:07:51.202Z,0.20
2022-08-27T17:10:18.907Z,0.30
2022-08-27T17:12:48.066Z,1.58
2022-08-27T17:15:17.120Z,3.03
2022-08-27T17:17:45.220Z,2.53
2022-08-27T17:20:12.918Z,4.35
2022-08-27T17:22:42.154Z,1.92
2022-08-27T17:25:09.419Z,1.13
2022-08-27T17:27:36.156Z,1.33
2022-08-27T17:30:05.089Z,3.03
2022-08-27T17:32:40.445Z,2.33
2022-08-27T17:35:08.468Z,1.30
2022-08-27T17:37:36.965Z,1.88
2022-08-27T17:40:06.353Z,1.02
2022-08-27T17:42:33.448Z,2.30
2022-08-27T17:45:01.308Z,3.25
2022-08-27T17:47:28.056Z,2.95
2022-08-27T17:49:56.260Z,4.47
2022-08-27T17:52:23.077Z,2.58
2022-08-27T17:54:57.439Z,2.97
2022-08-27T17:57:40.237Z,2.45
2022-08-27T18:00:13.115Z,0.32
2022-08-27T18:03:01.399Z,0.40
2022-08-27T18:05:28.433Z,0.68
2022-08-27T18:07:57.091Z,0.40
2022-08-27T18:10:26.378Z,0.10
2022-08-27T18:12:55.574Z,0.30
2022-08-27T18:15:26.204Z,0.10
2022-08-27T18:17:54.080Z,0.10
2022-08-27T18:20:24.468Z,0.10
2022-08-27T18:22:52.360Z,0.22
2022-08-27T18:25:36.178Z,0.20
2022-08-27T18:28:10.268Z,0.10
2022-08-27T18:30:40.186Z,0.40
2022-08-27T18:33:08.020Z,0.30
2022-08-27T18:35:35.665Z,0.00
2022-08-27T18:38:04.000Z,0.68
2022-08-27T18:40:37.009Z,0.08
2022-08-27T18:43:05.767Z,0.20
2022-08-27T18:45:34.758Z,0.10
2022-08-27T18:48:02.768Z,0.20
2022-08-27T18:50:30.055Z,0.22
2022-08-27T18:52:57.314Z,0.55
2022-08-27T18:55:28.155Z,0.17
2022-08-27T18:57:57.443Z,0.10
2022-08-27T19:00:25.849Z,0.40
2022-08-27T19:02:53.588Z,0.45
2022-08-27T19:05:26.652Z,0.40
2022-08-27T19:07:54.310Z,0.10
2022-08-27T19:10:21.657Z,0.30
2022-08-27T19:12:48.407Z,0.40
2022-08-27T19:15:15.416Z,0.13
2022-08-27T19:17:45.590Z,0.30
2022-08-27T19:20:12.634Z,0.10
2022-08-27T19:22:39.256Z,0.10
2022-08-27T19:25:07.536Z,0.80
2022-08-27T19:27:36.771Z,0.20
2022-08-27T19:30:05.277Z,0.47
2022-08-27T19:32:32.071Z,0.20
2022-08-27T19:34:58.973Z,0.40
2022-08-27T19:37:30.416Z,0.10
2022-08-27T19:39:57.474Z,0.30
2022-08-27T19:42:26.970Z,0.10
2022-08-27T19:44:53.685Z,0.30
2022-08-27T19:47:26.010Z,0.35
2022-08-27T19:49:58.777Z,0.20
2022-08-27T19:52:25.572Z,0.08
2022-08-27T19:55:12.748Z,0.10
2022-08-27T19:57:44.199Z,0.95
2022-08-27T20:00:13.432Z,0.10
2022-08-27T20:02:41.113Z,0.30
2022-08-27T20:05:18.022Z,0.40
2022-08-27T20:07:57.143Z,0.50
2022-08-27T20:10:36.178Z,0.10
2022-08-27T20:13:04.116Z,0.40
2022-08-27T20:15:33.225Z,0.63
2022-08-27T20:18:05.155Z,0.43
2022-08-27T20:20:32.808Z,0.10
2022-08-27T20:23:03.282Z,0.10
2022-08-27T20:25:30.958Z,0.00
2022-08-27T20:27:58.695Z,0.25
2022-08-27T20:30:30.250Z,0.30
2022-08-27T20:32:57.991Z,0.10
2022-08-27T20:35:25.482Z,0.10
2022-08-27T20:37:52.524Z,0.20
2022-08-27T20:40:44.540Z,0.38
2022-08-27T20:43:12.256Z,0.40
2022-08-27T20:45:40.083Z,0.10
2022-08-27T20:48:07.208Z,0.20
2022-08-27T20:50:43.632Z,0.20
2022-08-27T20:53:10.293Z,0.00
2022-08-27T20:55:37.190Z,0.38
2022-08-27T20:58:22.458Z,0.30
2022-08-27T21:00:53.270Z,0.35
2022-08-27T21:03:20.102Z,0.25
2022-08-27T21:05:49.987Z,0.75
2022-08-27T21:08:19.617Z,0.17
2022-08-27T21:10:50.955Z,0.13
2022-08-27T21:13:19.138Z,0.20
2022-08-27T21:15:45.949Z,0.10
2022-08-27T21:18:13.142Z,0.00
2022-08-27T21:20:40.670Z,0.10
2022-08-27T21:23:08.591Z,0.25
2022-08-27T21:25:35.217Z,0.10
2022-08-27T21:28:04.893Z,0.30
2022-08-27T21:30:31.922Z,0.32
2022-08-27T21:33:01.079Z,0.52
2022-08-27T21:35:30.510Z,0.32
2022-08-27T21:37:59.327Z,0.17
2022-08-27T21:40:26.545Z,0.40
2022-08-27T21:42:55.821Z,0.00
2022-08-27T21:45:23.144Z,0.30
2022-08-27T21:47:51.888Z,0.20
2022-08-27T21:50:19.935Z,0.20
2022-08-27T21:52:46.641Z,0.30
2022-08-27T21:55:13.833Z,0.10
2022-08-27T21:57:40.989Z,0.15
2022-08-27T22:00:39.173Z,0.15
2022-08-27T22:03:10.139Z,0.25
2022-08-27T22:05:39.527Z,0.55
2022-08-27T22:08:06.628Z,0.55
2022-08-27T22:10:34.265Z,0.40
2022-08-27T22:13:01.274Z,0.10
2022-08-27T22:15:28.089Z,0.10
2022-08-27T22:17:54.758Z,0.30
2022-08-27T22:20:23.015Z,0.10
2022-08-27T22:22:49.809Z,0.38
2022-08-27T22:25:16.676Z,0.17
2022-08-27T22:27:43.445Z,0.40
2022-08-27T22:30:11.540Z,0.10
2022-08-27T22:32:38.776Z,0.30
2022-08-27T22:35:07.969Z,0.22
2022-08-27T22:37:34.678Z,0.10
2022-08-27T22:40:01.462Z,0.22
2022-08-27T22:42:28.903Z,0.20
2022-08-27T22:44:55.653Z,0.10
2022-08-27T22:47:23.801Z,0.38
2022-08-27T22:49:52.895Z,0.10
2022-08-27T22:52:28.064Z,0.10
2022-08-27T22:54:55.065Z,0.30
2022-08-27T22:57:21.857Z,0.45
2022-08-27T22:59:48.888Z,0.10
2022-08-27T23:02:15.803Z,0.13
2022-08-27T23:04:54.717Z,0.20
2022-08-27T23:07:24.270Z,0.00
2022-08-27T23:09:51.130Z,0.40
2022-08-27T23:12:19.969Z,0.50
2022-08-27T23:14:46.849Z,0.00
2022-08-27T23:17:16.180Z,0.50
2022-08-27T23:19:43.114Z,0.15
2022-08-27T23:22:09.920Z,0.40
2022-08-27T23:24:57.794Z,0.05
2022-08-27T23:27:30.743Z,0.52
2022-08-27T23:29:59.952Z,0.30
2022-08-27T23:32:27.923Z,0.13
2022-08-27T23:34:58.803Z,0.10
2022-08-27T23:37:26.619Z,0.20
2022-08-27T23:39:53.775Z,0.45
2022-08-27T23:42:20.461Z,0.43
2022-08-27T23:44:48.758Z,0.55
2022-08-27T23:47:16.546Z,0.00
2022-08-27T23:49:44.036Z,0.20
2022-08-27T23:52:12.610Z,0.10
2022-08-27T23:54:39.653Z,0.10
2022-08-27T23:57:08.247Z,0.40
2022-08-27T23:59:35.337Z,0.30
